createdAt,value
2022-12-19T00:00:32.083Z,-0.81
2022-12-19T00:03:00.136Z,-0.76
2022-12-19T00:05:28.555Z,-0.83
2022-12-19T00:07:56.280Z,-0.78
2022-12-19T00:10:25.678Z,-0.74
2022-12-19T00:12:53.450Z,-0.65
2022-12-19T00:15:22.546Z,-0.65
2022-12-19T00:17:50.708Z,-0.52
2022-12-19T00:20:18.881Z,-0.53
2022-12-19T00:22:46.868Z,-0.65
2022-12-19T00:25:14.817Z,-0.64
2022-12-19T00:27:43.837Z,-0.52
2022-12-19T00:30:13.030Z,-0.43
2022-12-19T00:32:42.173Z,-0.51
2022-12-19T00:35:10.455Z,-0.65
2022-12-19T00:37:38.453Z,-0.70
2022-12-19T00:40:12.290Z,-0.76
2022-12-19T00:42:40.081Z,-0.79
2022-12-19T00:45:08.505Z,-0.69
2022-12-19T00:47:36.863Z,-0.52
2022-12-19T00:50:06.979Z,-0.56
2022-12-19T00:52:34.761Z,-0.62
2022-12-19T00:55:02.621Z,-0.50
2022-12-19T00:57:32.718Z,-0.52
2022-12-19T01:00:00.492Z,-0.44
2022-12-19T01:02:28.277Z,-0.45
2022-12-19T01:04:56.488Z,-0.43
2022-12-19T01:07:26.112Z,-0.52
2022-12-19T01:09:53.899Z,-0.57
2022-12-19T01:12:39.174Z,-0.47
2022-12-19T01:15:08.265Z,-0.47
2022-12-19T01:17:38.896Z,-0.48
2022-12-19T01:20:12.498Z,-0.53
2022-12-19T01:22:41.692Z,-0.48
2022-12-19T01:25:09.768Z,-0.39
2022-12-19T01:27:37.898Z,-0.47
2022-12-19T01:30:07.159Z,-0.51
2022-12-19T01:32:36.182Z,-0.52
2022-12-19T01:35:04.109Z,-0.50
2022-12-19T01:37:31.898Z,-0.47
2022-12-19T01:40:01.070Z,-0.44
2022-12-19T01:42:35.634Z,-0.43
2022-12-19T01:45:30.373Z,-0.48
2022-12-19T01:48:16.102Z,-0.38
2022-12-19T01:51:01.061Z,-0.29
2022-12-19T01:53:34.583Z,-0.43
2022-12-19T01:56:10.153Z,-0.52
2022-12-19T01:58:40.891Z,-0.49
2022-12-19T02:01:08.727Z,-0.41
2022-12-19T02:03:39.030Z,-0.45
2022-12-19T02:06:08.936Z,-0.49
2022-12-19T02:08:37.459Z,-0.36
2022-12-19T02:11:06.893Z,-0.58
2022-12-19T02:13:35.278Z,-0.51
2022-12-19T02:16:16.651Z,-0.55
2022-12-19T02:18:53.813Z,-0.44
2022-12-19T02:21:36.992Z,-0.38
2022-12-19T02:24:48.223Z,-0.49
2022-12-19T02:28:06.834Z,-0.38
2022-12-19T02:30:51.804Z,-0.27
2022-12-19T02:33:27.383Z,-0.39
2022-12-19T02:35:58.479Z,-0.41
2022-12-19T02:38:33.993Z,-0.30
2022-12-19T02:41:06.889Z,-0.28
2022-12-19T02:43:40.464Z,-0.25
2022-12-19T02:46:12.521Z,-0.21
2022-12-19T02:48:41.369Z,-0.27
2022-12-19T02:51:09.301Z,-0.16
2022-12-19T02:53:38.321Z,-0.11
2022-12-19T02:56:22.333Z,-0.12
2022-12-19T02:59:05.639Z,-0.11
2022-12-19T03:01:47.688Z,0.01
2022-12-19T03:04:31.751Z,-0.06
2022-12-19T03:07:05.057Z,0.03
2022-12-19T03:09:39.108Z,0.01
2022-12-19T03:12:14.243Z,0.01
2022-12-19T03:14:46.676Z,0.10
2022-12-19T03:17:23.244Z,0.12
2022-12-19T03:19:51.108Z,0.16
2022-12-19T03:22:19.000Z,0.01
2022-12-19T03:24:47.102Z,0.09
2022-12-19T03:27:20.183Z,0.05
2022-12-19T03:29:53.902Z,0.02
2022-12-19T03:32:25.664Z,0.13
2022-12-19T03:34:58.876Z,0.14
2022-12-19T03:37:33.320Z,0.21
2022-12-19T03:40:09.358Z,0.20
2022-12-19T03:42:58.734Z,0.14
2022-12-19T03:45:32.267Z,0.21
2022-12-19T03:48:06.904Z,0.12
2022-12-19T03:50:43.662Z,0.23
2022-12-19T03:53:22.983Z,0.24
2022-12-19T03:56:00.112Z,0.29
2022-12-19T03:58:34.250Z,0.19
2022-12-19T04:01:04.876Z,0.08
2022-12-19T04:03:34.656Z,0.28
2022-12-19T04:06:04.193Z,0.10
2022-12-19T04:08:34.109Z,0.24
2022-12-19T04:11:08.650Z,0.26
2022-12-19T04:13:39.803Z,0.28
2022-12-19T04:16:16.416Z,0.36
2022-12-19T04:18:52.608Z,0.33
2022-12-19T04:21:23.845Z,0.36
2022-12-19T04:23:56.701Z,0.24
2022-12-19T04:26:26.237Z,0.22
2022-12-19T04:28:57.347Z,0.23
2022-12-19T04:31:25.787Z,0.18
2022-12-19T04:33:55.041Z,0.26
2022-12-19T04:36:23.072Z,0.24
2022-12-19T04:38:51.223Z,0.26
2022-12-19T04:41:19.102Z,0.34
2022-12-19T04:43:47.204Z,0.36
2022-12-19T04:46:15.706Z,0.37
2022-12-19T04:48:43.572Z,0.25
2022-12-19T04:51:13.293Z,0.34
2022-12-19T04:53:41.183Z,0.25
2022-12-19T04:56:10.556Z,0.26
2022-12-19T04:58:39.250Z,0.15
2022-12-19T05:01:09.681Z,0.21
2022-12-19T05:03:37.814Z,0.16
2022-12-19T05:06:07.463Z,0.21
2022-12-19T05:08:37.741Z,0.23
2022-12-19T05:11:07.210Z,0.68
2022-12-19T05:13:35.389Z,0.93
2022-12-19T05:16:05.616Z,0.44
2022-12-19T05:18:33.820Z,0.46
2022-12-19T05:21:01.860Z,0.35
2022-12-19T05:23:30.134Z,0.46
2022-12-19T05:26:00.783Z,0.43
2022-12-19T05:28:29.674Z,0.44
2022-12-19T05:31:04.234Z,0.32
2022-12-19T05:33:32.058Z,0.45
2022-12-19T05:35:59.833Z,0.39
2022-12-19T05:38:28.302Z,0.37
2022-12-19T05:40:56.202Z,0.38
2022-12-19T05:43:25.534Z,0.38
2022-12-19T05:45:53.881Z,0.50
2022-12-19T05:48:21.626Z,0.46
2022-12-19T05:50:50.698Z,0.47
2022-12-19T05:53:23.330Z,0.47
2022-12-19T05:55:53.719Z,0.36
2022-12-19T05:58:21.530Z,0.44
2022-12-19T06:00:50.810Z,0.46
2022-12-19T06:03:18.624Z,0.51
2022-12-19T06:05:46.389Z,0.53
2022-12-19T06:08:14.172Z,0.51
2022-12-19T06:10:42.377Z,0.55
2022-12-19T06:13:10.267Z,0.41
2022-12-19T06:15:38.333Z,0.40
2022-12-19T06:18:08.085Z,0.38
2022-12-19T06:20:36.277Z,0.44
2022-12-19T06:23:04.142Z,0.46
2022-12-19T06:25:32.019Z,0.61
2022-12-19T06:28:00.158Z,1.31
2022-12-19T06:30:28.288Z,0.71
2022-12-19T06:32:56.065Z,1.14
2022-12-19T06:35:25.695Z,0.74
2022-12-19T06:37:57.904Z,0.66
2022-12-19T06:40:46.072Z,0.49
2022-12-19T06:43:14.132Z,0.45
2022-12-19T06:45:42.384Z,0.47
2022-12-19T06:48:10.533Z,0.62
2022-12-19T06:50:40.010Z,0.59
2022-12-19T06:53:07.745Z,0.63
2022-12-19T06:55:37.473Z,0.67
2022-12-19T06:58:05.990Z,0.49
2022-12-19T07:00:38.005Z,0.55
2022-12-19T07:03:06.091Z,0.39
2022-12-19T07:05:34.833Z,0.40
2022-12-19T07:08:04.026Z,0.42
2022-12-19T07:10:31.966Z,0.40
2022-12-19T07:12:59.758Z,0.34
2022-12-19T07:15:28.269Z,0.42
2022-12-19T07:17:56.491Z,0.46
2022-12-19T07:20:24.298Z,0.48
2022-12-19T07:22:54.032Z,0.36
2022-12-19T07:25:23.691Z,0.31
2022-12-19T07:27:53.638Z,0.37
2022-12-19T07:30:22.640Z,0.46
2022-12-19T07:32:50.390Z,0.52
2022-12-19T07:35:18.122Z,0.58
2022-12-19T07:37:45.903Z,0.61
2022-12-19T07:40:15.173Z,0.63
2022-12-19T07:42:44.848Z,0.62
2022-12-19T07:45:13.366Z,0.51
2022-12-19T07:47:41.192Z,0.65
2022-12-19T07:50:09.703Z,0.47
2022-12-19T07:52:37.464Z,0.42
2022-12-19T07:55:05.730Z,0.56
2022-12-19T07:57:33.878Z,0.35
2022-12-19T08:00:03.550Z,0.25
2022-12-19T08:02:31.841Z,0.35
2022-12-19T08:04:59.729Z,0.42
2022-12-19T08:07:28.286Z,0.46
2022-12-19T08:09:57.433Z,0.37
2022-12-19T08:12:25.349Z,0.35
2022-12-19T08:14:57.088Z,0.40
2022-12-19T08:17:27.296Z,0.39
2022-12-19T08:19:55.175Z,0.43
2022-12-19T08:22:23.944Z,0.44
2022-12-19T08:24:51.860Z,0.48
2022-12-19T08:27:19.920Z,0.41
2022-12-19T08:29:48.014Z,0.47
2022-12-19T08:32:20.807Z,0.54
2022-12-19T08:34:51.528Z,0.63
2022-12-19T08:37:19.283Z,0.75
2022-12-19T08:39:47.435Z,0.75
2022-12-19T08:42:15.321Z,0.83
2022-12-19T08:44:43.078Z,0.86
2022-12-19T08:47:10.916Z,0.88
2022-12-19T08:49:38.726Z,0.95
2022-12-19T08:52:07.916Z,0.91
2022-12-19T08:54:35.785Z,0.79
2022-12-19T08:57:03.622Z,0.95
2022-12-19T08:59:32.254Z,0.91
2022-12-19T09:02:01.317Z,0.99
2022-12-19T09:05:28.511Z,1.05
2022-12-19T09:07:19.206Z,1.11
2022-12-19T09:09:47.186Z,1.24
2022-12-19T09:12:16.046Z,1.13
2022-12-19T09:14:44.271Z,0.99
2022-12-19T09:17:12.209Z,1.00
2022-12-19T09:19:40.108Z,0.75
2022-12-19T09:22:10.820Z,0.78
2022-12-19T09:24:40.484Z,0.84
2022-12-19T09:27:08.315Z,0.92
2022-12-19T09:29:36.303Z,0.95
2022-12-19T09:32:04.574Z,1.00
2022-12-19T09:34:38.096Z,1.00
2022-12-19T09:37:08.237Z,0.99
2022-12-19T09:39:36.535Z,1.04
2022-12-19T09:42:24.468Z,1.18
2022-12-19T09:45:06.451Z,1.26
2022-12-19T09:47:38.975Z,1.31
2022-12-19T09:50:23.790Z,1.52
2022-12-19T09:52:58.804Z,1.62
2022-12-19T09:55:30.504Z,1.91
2022-12-19T09:58:08.085Z,2.11
2022-12-19T10:00:40.520Z,1.96
2022-12-19T10:03:18.785Z,2.02
2022-12-19T10:07:11.013Z,2.12
2022-12-19T10:09:00.693Z,2.46
2022-12-19T10:12:41.104Z,2.09
2022-12-19T10:14:53.019Z,2.03
2022-12-19T10:17:28.307Z,2.02
2022-12-19T10:20:13.318Z,2.09
2022-12-19T10:22:51.909Z,2.02
2022-12-19T10:25:30.209Z,2.09
2022-12-19T10:28:07.623Z,2.15
2022-12-19T10:30:44.827Z,2.26
2022-12-19T10:33:22.593Z,2.32
2022-12-19T10:35:55.536Z,2.68
2022-12-19T10:38:32.427Z,2.47
2022-12-19T10:41:16.084Z,2.65
2022-12-19T10:43:53.938Z,2.47
2022-12-19T10:46:36.923Z,2.50
2022-12-19T10:49:14.057Z,2.29
2022-12-19T10:51:42.964Z,2.31
2022-12-19T10:54:11.086Z,2.54
2022-12-19T10:56:38.895Z,3.09
2022-12-19T10:59:17.426Z,3.03
2022-12-19T11:01:54.199Z,2.95
2022-12-19T11:04:32.413Z,2.86
2022-12-19T11:07:18.178Z,2.81
2022-12-19T11:10:05.679Z,2.79
2022-12-19T11:16:56.632Z,2.72
2022-12-19T11:18:59.939Z,2.95
2022-12-19T11:29:15.256Z,2.82
2022-12-19T11:29:40.408Z,3.33
2022-12-19T11:29:55.808Z,2.85
2022-12-19T11:30:35.950Z,3.48
2022-12-19T11:32:42.729Z,3.27
2022-12-19T11:35:22.759Z,3.22
2022-12-19T11:37:56.291Z,2.76
2022-12-19T11:40:34.088Z,2.81
2022-12-19T11:43:43.277Z,2.89
2022-12-19T11:46:02.195Z,2.99
2022-12-19T11:48:37.851Z,3.07
2022-12-19T11:51:17.600Z,3.38
2022-12-19T11:53:53.664Z,3.65
2022-12-19T11:56:25.484Z,3.43
2022-12-19T11:58:57.340Z,3.24
2022-12-19T12:01:44.434Z,3.07
2022-12-19T12:04:33.647Z,3.19
2022-12-19T12:07:11.751Z,3.02
2022-12-19T12:14:05.884Z,3.01
2022-12-19T12:20:03.400Z,3.00
2022-12-19T12:27:34.775Z,3.17
2022-12-19T12:31:17.154Z,3.34
2022-12-19T12:31:22.673Z,3.23
2022-12-19T12:31:54.263Z,3.02
2022-12-19T12:32:03.749Z,2.96
2022-12-19T12:35:09.296Z,3.04
2022-12-19T12:35:28.860Z,3.04
2022-12-19T12:39:58.059Z,3.27
2022-12-19T12:42:40.195Z,2.72
2022-12-19T12:45:20.845Z,2.50
2022-12-19T12:47:52.420Z,2.71
2022-12-19T12:50:24.052Z,3.07
2022-12-19T12:52:56.307Z,2.82
2022-12-19T12:55:29.897Z,2.67
2022-12-19T12:57:58.311Z,2.63
2022-12-19T13:00:29.920Z,2.67
2022-12-19T13:03:06.644Z,2.76
2022-12-19T13:05:42.085Z,2.98
2022-12-19T13:08:33.069Z,2.63
2022-12-19T13:11:04.003Z,2.66
2022-12-19T13:13:53.147Z,2.76
2022-12-19T13:16:53.442Z,2.97
2022-12-19T13:19:28.506Z,3.09
2022-12-19T13:22:18.836Z,2.94
2022-12-19T13:24:51.188Z,2.91
2022-12-19T13:27:41.998Z,3.19
2022-12-19T13:30:18.973Z,2.94
2022-12-19T13:33:10.171Z,3.22
2022-12-19T13:39:01.732Z,2.98
2022-12-19T13:40:00.093Z,2.74
2022-12-19T13:41:45.259Z,2.66
2022-12-19T13:44:15.385Z,2.84
2022-12-19T13:46:44.676Z,2.87
2022-12-19T13:49:16.255Z,2.97
2022-12-19T13:51:48.410Z,2.88
2022-12-19T13:54:22.904Z,3.02
2022-12-19T13:56:51.339Z,2.78
2022-12-19T13:59:22.930Z,2.76
2022-12-19T14:01:53.218Z,2.74
2022-12-19T14:04:30.258Z,2.79
2022-12-19T14:07:01.744Z,2.45
2022-12-19T14:11:28.779Z,2.62
2022-12-19T14:13:55.523Z,2.54
2022-12-19T14:15:34.521Z,2.70
2022-12-19T14:18:21.875Z,2.72
2022-12-19T14:22:05.734Z,2.64
2022-12-19T14:23:43.856Z,2.70
2022-12-19T14:28:24.035Z,3.03
2022-12-19T14:29:09.369Z,2.96
2022-12-19T14:31:58.591Z,3.02
2022-12-19T14:35:03.945Z,3.03
2022-12-19T14:37:31.656Z,2.86
2022-12-19T14:40:25.968Z,2.78
2022-12-19T14:43:56.627Z,2.71
2022-12-19T14:52:53.663Z,2.47
2022-12-19T14:54:10.246Z,2.53
2022-12-19T14:54:31.360Z,2.44
2022-12-19T14:56:12.224Z,2.41
2022-12-19T14:58:52.467Z,2.39
2022-12-19T15:01:23.962Z,2.47
2022-12-19T15:04:50.817Z,2.25
2022-12-19T15:07:06.620Z,2.06
2022-12-19T15:11:07.501Z,1.87
2022-12-19T15:14:47.899Z,2.03
2022-12-19T15:15:45.754Z,2.07
2022-12-19T15:18:23.768Z,2.00
2022-12-19T15:20:57.796Z,1.92
2022-12-19T15:23:27.574Z,1.89
2022-12-19T15:26:06.550Z,1.89
2022-12-19T15:28:41.819Z,1.91
2022-12-19T15:31:26.372Z,1.79
2022-12-19T15:34:32.411Z,1.70
2022-12-19T15:36:42.131Z,1.73
2022-12-19T15:39:11.340Z,1.75
2022-12-19T15:41:39.146Z,1.75
2022-12-19T15:44:11.112Z,1.74
2022-12-19T15:46:44.521Z,1.72
2022-12-19T15:49:17.229Z,1.73
2022-12-19T15:51:45.390Z,1.79
2022-12-19T15:54:47.367Z,1.67
2022-12-19T15:57:02.549Z,1.67
2022-12-19T15:59:37.699Z,1.78
2022-12-19T16:02:17.643Z,1.71
2022-12-19T16:04:47.524Z,1.73
2022-12-19T16:07:17.800Z,1.58
2022-12-19T16:09:47.752Z,1.69
2022-12-19T16:12:18.040Z,1.55
2022-12-19T16:14:47.571Z,1.49
2022-12-19T16:17:20.996Z,1.49
2022-12-19T16:19:49.826Z,1.38
2022-12-19T16:22:19.736Z,1.36
2022-12-19T16:24:49.576Z,1.24
2022-12-19T16:27:23.786Z,1.24
2022-12-19T16:29:52.384Z,1.25
2022-12-19T16:32:24.669Z,1.22
2022-12-19T16:34:53.223Z,1.32
2022-12-19T16:37:21.199Z,1.32
2022-12-19T16:39:50.433Z,1.44
2022-12-19T16:42:19.286Z,1.36
2022-12-19T16:44:49.062Z,1.28
2022-12-19T16:47:19.052Z,1.35
2022-12-19T16:49:47.044Z,1.10
2022-12-19T16:52:15.422Z,1.34
2022-12-19T16:54:43.250Z,1.35
2022-12-19T16:57:20.919Z,1.35
2022-12-19T16:59:49.946Z,1.28
2022-12-19T17:02:42.422Z,1.29
2022-12-19T17:05:19.731Z,1.21
2022-12-19T17:07:48.024Z,1.27
2022-12-19T17:10:19.963Z,1.29
2022-12-19T17:12:53.563Z,1.38
2022-12-19T17:15:28.158Z,1.29
2022-12-19T17:17:58.152Z,1.35
2022-12-19T17:20:29.163Z,1.41
2022-12-19T17:22:57.045Z,1.23
2022-12-19T17:25:26.374Z,1.35
2022-12-19T17:27:56.826Z,1.44
2022-12-19T17:30:24.728Z,1.44
2022-12-19T17:32:55.711Z,1.39
2022-12-19T17:35:28.246Z,1.46
2022-12-19T17:37:58.239Z,1.47
2022-12-19T17:40:27.775Z,1.47
2022-12-19T17:42:57.552Z,1.55
2022-12-19T17:45:27.136Z,1.48
2022-12-19T17:48:02.256Z,1.63
2022-12-19T17:50:33.646Z,1.55
2022-12-19T17:53:03.080Z,1.66
2022-12-19T17:55:31.867Z,1.65
2022-12-19T17:58:01.100Z,1.62
2022-12-19T18:00:31.231Z,1.49
2022-12-19T18:03:02.957Z,1.57
2022-12-19T18:05:35.848Z,1.56
2022-12-19T18:08:05.029Z,1.53
2022-12-19T18:10:33.575Z,1.48
2022-12-19T18:13:02.778Z,1.55
2022-12-19T18:15:30.655Z,1.59
2022-12-19T18:17:58.815Z,1.57
2022-12-19T18:20:31.887Z,1.60
2022-12-19T18:23:01.551Z,1.63
2022-12-19T18:25:32.071Z,1.66
2022-12-19T18:28:00.250Z,1.59
2022-12-19T18:30:29.489Z,1.67
2022-12-19T18:32:59.855Z,1.71
2022-12-19T18:35:32.519Z,1.71
2022-12-19T18:38:01.845Z,1.72
2022-12-19T18:40:31.928Z,1.65
2022-12-19T18:43:00.048Z,1.65
2022-12-19T18:45:35.126Z,1.78
2022-12-19T18:48:05.266Z,1.73
2022-12-19T18:50:33.321Z,1.63
2022-12-19T18:53:01.730Z,1.65
2022-12-19T18:55:32.370Z,1.63
2022-12-19T18:58:00.324Z,1.59
2022-12-19T19:00:30.129Z,1.53
2022-12-19T19:02:59.978Z,1.53
2022-12-19T19:05:30.972Z,1.54
2022-12-19T19:07:59.049Z,1.55
2022-12-19T19:10:30.208Z,1.52
2022-12-19T19:13:02.729Z,1.50
2022-12-19T19:15:36.301Z,1.49
2022-12-19T19:18:05.974Z,1.51
2022-12-19T19:20:37.320Z,1.53
2022-12-19T19:23:08.488Z,1.47
2022-12-19T19:25:36.573Z,1.46
2022-12-19T19:28:05.826Z,1.44
2022-12-19T19:30:38.228Z,1.27
2022-12-19T19:33:11.616Z,1.36
2022-12-19T19:35:39.860Z,1.44
2022-12-19T19:38:09.937Z,1.40
2022-12-19T19:40:38.794Z,1.39
2022-12-19T19:43:06.986Z,1.27
2022-12-19T19:45:42.768Z,1.39
2022-12-19T19:48:11.300Z,1.39
2022-12-19T19:50:39.245Z,1.40
2022-12-19T19:53:07.053Z,1.32
2022-12-19T19:55:34.962Z,1.37
2022-12-19T19:58:02.858Z,1.41
2022-12-19T20:00:30.662Z,1.40
2022-12-19T20:03:05.581Z,1.42
2022-12-19T20:05:35.948Z,1.36
2022-12-19T20:08:03.791Z,1.36
2022-12-19T20:10:31.795Z,1.38
2022-12-19T20:12:59.879Z,1.40
2022-12-19T20:15:27.760Z,1.39
2022-12-19T20:17:55.629Z,1.40
2022-12-19T20:20:25.245Z,1.40
2022-12-19T20:22:53.221Z,1.38
2022-12-19T20:25:21.079Z,1.39
2022-12-19T20:27:48.914Z,1.19
2022-12-19T20:30:18.162Z,1.30
2022-12-19T20:32:46.234Z,1.22
2022-12-19T20:35:14.971Z,1.22
2022-12-19T20:37:44.777Z,1.29
2022-12-19T20:40:13.170Z,1.23
2022-12-19T20:42:41.008Z,1.27
2022-12-19T20:45:09.512Z,1.29
2022-12-19T20:47:37.704Z,1.28
2022-12-19T20:50:07.584Z,1.31
2022-12-19T20:52:35.526Z,1.28
2022-12-19T20:55:05.769Z,1.28
2022-12-19T20:57:33.613Z,1.34
2022-12-19T21:00:01.498Z,1.46
2022-12-19T21:02:46.253Z,1.44
2022-12-19T21:05:17.432Z,1.32
2022-12-19T21:07:45.372Z,1.37
2022-12-19T21:10:14.733Z,1.11
2022-12-19T21:12:47.572Z,1.33
2022-12-19T21:15:15.932Z,1.24
2022-12-19T21:17:43.799Z,1.29
2022-12-19T21:20:12.413Z,1.35
2022-12-19T21:22:40.191Z,1.34
2022-12-19T21:25:08.526Z,1.29
2022-12-19T21:27:37.749Z,1.28
2022-12-19T21:30:07.536Z,1.30
2022-12-19T21:32:35.915Z,1.26
2022-12-19T21:35:03.936Z,1.29
2022-12-19T21:37:32.104Z,1.25
2022-12-19T21:39:59.978Z,1.19
2022-12-19T21:42:27.830Z,1.23
2022-12-19T21:44:57.030Z,1.23
2022-12-19T21:47:24.848Z,1.32
2022-12-19T21:49:52.711Z,1.19
2022-12-19T21:52:20.507Z,1.34
2022-12-19T21:54:48.354Z,1.27
2022-12-19T21:57:16.221Z,1.11
2022-12-19T21:59:44.162Z,1.26
2022-12-19T22:02:13.788Z,1.19
2022-12-19T22:04:41.742Z,1.30
2022-12-19T22:07:09.940Z,1.30
2022-12-19T22:09:37.925Z,1.36
2022-12-19T22:12:06.260Z,1.31
2022-12-19T22:14:34.256Z,0.99
2022-12-19T22:17:02.165Z,1.30
2022-12-19T22:19:31.663Z,1.30
2022-12-19T22:21:59.840Z,1.25
2022-12-19T22:24:27.832Z,1.29
2022-12-19T22:26:55.900Z,1.22
2022-12-19T22:29:24.132Z,1.23
2022-12-19T22:31:52.227Z,1.13
2022-12-19T22:34:22.578Z,1.13
2022-12-19T22:36:51.775Z,1.06
2022-12-19T22:39:22.462Z,0.87
2022-12-19T22:41:50.678Z,1.05
2022-12-19T22:44:20.793Z,0.99
2022-12-19T22:46:49.251Z,0.55
2022-12-19T22:49:17.744Z,0.94
2022-12-19T22:51:45.744Z,0.96
2022-12-19T22:54:15.030Z,0.76
2022-12-19T22:56:42.871Z,0.88
2022-12-19T22:59:12.974Z,0.82
2022-12-19T23:01:43.334Z,0.91
2022-12-19T23:04:14.360Z,0.91
2022-12-19T23:06:42.964Z,0.92
2022-12-19T23:09:16.099Z,0.98
2022-12-19T23:11:47.367Z,0.93
2022-12-19T23:14:17.211Z,0.98
2022-12-19T23:16:45.719Z,0.89
2022-12-19T23:19:14.948Z,0.86
2022-12-19T23:21:42.924Z,1.06
2022-12-19T23:24:12.053Z,1.18
2022-12-19T23:26:41.379Z,1.25
2022-12-19T23:29:11.537Z,1.20
2022-12-19T23:31:40.856Z,1.26
2022-12-19T23:34:10.303Z,1.34
2022-12-19T23:39:26.548Z,1.28
2022-12-19T23:41:55.656Z,1.23
2022-12-19T23:44:23.663Z,1.28
2022-12-19T23:46:51.532Z,1.28
2022-12-19T23:49:19.332Z,1.16
2022-12-19T23:51:47.148Z,1.08
2022-12-19T23:54:15.017Z,1.14
2022-12-19T23:56:42.810Z,1.24
2022-12-19T23:59:12.046Z,1.17
